sensor_id;sensor_type;location;lat;lon;timestamp;pressure;altitude;pressure_sealevel;temperature;humidity
55610;BME280;41486;52.502;13.486;2023-02-19T00:01:59;100864.53;;;5.55;100.00
55610;BME280;41486;52.502;13.486;2023-02-19T00:04:27;100873.41;;;5.51;100.00
55610;BME280;41486;52.502;13.486;2023-02-19T00:06:57;100880.78;;;5.60;100.00
55610;BME280;41486;52.502;13.486;2023-02-19T00:09:25;100872.19;;;5.58;100.00
55610;BME280;41486;52.502;13.486;2023-02-19T00:11:53;100866.59;;;5.48;100.00
55610;BME280;41486;52.502;13.486;2023-02-19T00:14:21;100868.38;;;5.48;100.00
55610;BME280;41486;52.502;13.486;2023-02-19T00:16:49;100879.59;;;5.32;100.00
55610;BME280;41486;52.502;13.486;2023-02-19T00:19:19;100870.03;;;5.49;100.00
55610;BME280;41486;52.502;13.486;2023-02-19T00:21:49;100865.78;;;5.48;100.00
55610;BME280;41486;52.502;13.486;2023-02-19T00:24:19;100864.91;;;5.30;100.00
55610;BME280;41486;52.502;13.486;2023-02-19T00:26:47;100861.34;;;5.32;100.00
55610;BME280;41486;52.502;13.486;2023-02-19T00:29:17;100859.72;;;5.12;100.00
55610;BME280;41486;52.502;13.486;2023-02-19T00:31:46;100856.84;;;5.34;100.00
55610;BME280;41486;52.502;13.486;2023-02-19T00:34:14;100857.00;;;5.49;100.00
55610;BME280;41486;52.502;13.486;2023-02-19T00:36:43;100852.09;;;5.43;100.00
55610;BME280;41486;52.502;13.486;2023-02-19T00:39:13;100842.88;;;5.53;100.00
55610;BME280;41486;52.502;13.486;2023-02-19T00:41:43;100836.28;;;5.46;100.00
55610;BME280;41486;52.502;13.486;2023-02-19T00:44:12;100845.19;;;5.42;100.00
55610;BME280;41486;52.502;13.486;2023-02-19T00:46:42;100835.59;;;5.42;100.00
55610;BME280;41486;52.502;13.486;2023-02-19T00:49:15;100842.50;;;5.43;100.00
55610;BME280;41486;52.502;13.486;2023-02-19T00:51:43;100844.19;;;5.44;100.00
55610;BME280;41486;52.502;13.486;2023-02-19T00:54:12;100844.13;;;5.46;100.00
55610;BME280;41486;52.502;13.486;2023-02-19T00:56:40;100844.72;;;5.51;100.00
55610;BME280;41486;52.502;13.486;2023-02-19T00:59:09;100848.00;;;5.55;100.00
55610;BME280;41486;52.502;13.486;2023-02-19T01:01:37;100844.69;;;5.68;100.00
55610;BME280;41486;52.502;13.486;2023-02-19T01:04:06;100835.38;;;5.63;100.00
55610;BME280;41486;52.502;13.486;2023-02-19T01:06:34;100834.47;;;5.64;100.00
55610;BME280;41486;52.502;13.486;2023-02-19T01:09:03;100836.44;;;5.43;100.00
55610;BME280;41486;52.502;13.486;2023-02-19T01:11:31;100834.84;;;5.40;100.00
55610;BME280;41486;52.502;13.486;2023-02-19T01:14:00;100823.44;;;5.59;100.00
55610;BME280;41486;52.502;13.486;2023-02-19T01:16:30;100829.50;;;5.59;100.00
55610;BME280;41486;52.502;13.486;2023-02-19T01:18:58;100822.81;;;5.53;100.00
55610;BME280;41486;52.502;13.486;2023-02-19T01:21:28;100821.91;;;5.55;100.00
55610;BME280;41486;52.502;13.486;2023-02-19T01:23:57;100812.38;;;5.53;100.00
55610;BME280;41486;52.502;13.486;2023-02-19T01:26:28;100816.44;;;5.59;100.00
55610;BME280;41486;52.502;13.486;2023-02-19T01:28:57;100802.69;;;5.56;100.00
55610;BME280;41486;52.502;13.486;2023-02-19T01:31:26;100783.25;;;5.61;100.00
55610;BME280;41486;52.502;13.486;2023-02-19T01:33:57;100782.50;;;5.59;100.00
55610;BME280;41486;52.502;13.486;2023-02-19T01:36:27;100775.00;;;5.53;100.00
55610;BME280;41486;52.502;13.486;2023-02-19T01:38:58;100767.97;;;5.37;100.00
55610;BME280;41486;52.502;13.486;2023-02-19T01:41:26;100775.56;;;5.42;100.00
55610;BME280;41486;52.502;13.486;2023-02-19T01:44:00;100773.38;;;5.17;100.00
55610;BME280;41486;52.502;13.486;2023-02-19T01:46:29;100785.66;;;5.32;100.00
55610;BME280;41486;52.502;13.486;2023-02-19T01:49:05;100784.88;;;5.30;100.00
55610;BME280;41486;52.502;13.486;2023-02-19T01:51:40;100774.31;;;5.16;100.00
55610;BME280;41486;52.502;13.486;2023-02-19T01:54:11;100777.16;;;5.29;100.00
55610;BME280;41486;52.502;13.486;2023-02-19T01:56:41;100767.44;;;5.31;100.00
55610;BME280;41486;52.502;13.486;2023-02-19T01:59:11;100765.09;;;5.26;100.00
55610;BME280;41486;52.502;13.486;2023-02-19T02:01:39;100758.03;;;5.28;100.00
55610;BME280;41486;52.502;13.486;2023-02-19T02:04:11;100761.97;;;5.19;100.00
55610;BME280;41486;52.502;13.486;2023-02-19T02:06:43;100757.91;;;5.14;100.00
55610;BME280;41486;52.502;13.486;2023-02-19T02:09:15;100758.16;;;4.74;100.00
55610;BME280;41486;52.502;13.486;2023-02-19T02:12:01;100740.22;;;4.85;100.00
55610;BME280;41486;52.502;13.486;2023-02-19T02:14:30;100734.84;;;4.88;100.00
55610;BME280;41486;52.502;13.486;2023-02-19T02:17:06;100743.88;;;4.81;100.00
55610;BME280;41486;52.502;13.486;2023-02-19T02:19:58;100748.63;;;5.08;100.00
55610;BME280;41486;52.502;13.486;2023-02-19T02:22:32;100745.47;;;5.01;100.00
55610;BME280;41486;52.502;13.486;2023-02-19T02:25:31;100743.88;;;4.99;100.00
55610;BME280;41486;52.502;13.486;2023-02-19T02:28:16;100745.66;;;4.98;100.00
55610;BME280;41486;52.502;13.486;2023-02-19T02:30:51;100755.47;;;4.93;100.00
55610;BME280;41486;52.502;13.486;2023-02-19T02:33:25;100761.63;;;4.92;100.00
55610;BME280;41486;52.502;13.486;2023-02-19T02:35:58;100754.03;;;4.70;100.00
55610;BME280;41486;52.502;13.486;2023-02-19T02:38:30;100751.97;;;4.59;100.00
55610;BME280;41486;52.502;13.486;2023-02-19T02:41:00;100753.34;;;4.66;100.00
55610;BME280;41486;52.502;13.486;2023-02-19T02:43:30;100751.44;;;4.70;100.00
55610;BME280;41486;52.502;13.486;2023-02-19T02:45:59;100741.69;;;4.73;100.00
55610;BME280;41486;52.502;13.486;2023-02-19T02:48:34;100742.50;;;4.74;100.00
55610;BME280;41486;52.502;13.486;2023-02-19T02:51:11;100742.47;;;4.76;100.00
55610;BME280;41486;52.502;13.486;2023-02-19T02:53:49;100737.75;;;4.65;100.00
55610;BME280;41486;52.502;13.486;2023-02-19T02:56:38;100736.41;;;4.21;100.00
55610;BME280;41486;52.502;13.486;2023-02-19T02:59:09;100750.44;;;4.18;100.00
55610;BME280;41486;52.502;13.486;2023-02-19T03:01:40;100750.97;;;4.07;100.00
55610;BME280;41486;52.502;13.486;2023-02-19T03:04:32;100751.88;;;4.06;100.00
55610;BME280;41486;52.502;13.486;2023-02-19T03:07:04;100756.81;;;4.13;100.00
55610;BME280;41486;52.502;13.486;2023-02-19T03:09:40;100752.06;;;3.84;100.00
55610;BME280;41486;52.502;13.486;2023-02-19T03:12:13;100751.69;;;3.92;100.00
55610;BME280;41486;52.502;13.486;2023-02-19T03:15:03;100761.97;;;3.95;100.00
55610;BME280;41486;52.502;13.486;2023-02-19T03:17:57;100763.22;;;3.86;100.00
55610;BME280;41486;52.502;13.486;2023-02-19T03:20:49;100755.47;;;4.04;100.00
55610;BME280;41486;52.502;13.486;2023-02-19T03:23:19;100766.53;;;3.71;100.00
55610;BME280;41486;52.502;13.486;2023-02-19T03:26:11;100772.63;;;3.89;100.00
55610;BME280;41486;52.502;13.486;2023-02-19T03:28:47;100771.03;;;3.67;100.00
55610;BME280;41486;52.502;13.486;2023-02-19T03:31:37;100779.97;;;3.61;100.00
55610;BME280;41486;52.502;13.486;2023-02-19T03:34:10;100783.00;;;3.31;100.00
55610;BME280;41486;52.502;13.486;2023-02-19T03:36:43;100781.81;;;3.59;100.00
55610;BME280;41486;52.502;13.486;2023-02-19T03:39:14;100778.00;;;3.67;100.00
55610;BME280;41486;52.502;13.486;2023-02-19T03:41:49;100788.59;;;3.43;100.00
55610;BME280;41486;52.502;13.486;2023-02-19T03:44:26;100778.53;;;3.54;100.00
55610;BME280;41486;52.502;13.486;2023-02-19T03:46:59;100782.19;;;3.10;100.00
55610;BME280;41486;52.502;13.486;2023-02-19T03:49:40;100785.97;;;3.24;100.00
55610;BME280;41486;52.502;13.486;2023-02-19T03:52:15;100789.09;;;3.32;100.00
55610;BME280;41486;52.502;13.486;2023-02-19T03:54:50;100784.41;;;3.20;100.00
55610;BME280;41486;52.502;13.486;2023-02-19T03:57:23;100785.44;;;3.15;100.00
55610;BME280;41486;52.502;13.486;2023-02-19T03:59:57;100788.81;;;3.18;100.00
55610;BME280;41486;52.502;13.486;2023-02-19T04:02:28;100786.69;;;3.27;100.00
55610;BME280;41486;52.502;13.486;2023-02-19T04:05:05;100790.47;;;3.20;100.00
55610;BME280;41486;52.502;13.486;2023-02-19T04:07:43;100789.31;;;2.84;100.00
55610;BME280;41486;52.502;13.486;2023-02-19T04:10:13;100791.88;;;3.07;100.00
55610;BME280;41486;52.502;13.486;2023-02-19T04:12:47;100798.50;;;3.14;100.00
55610;BME280;41486;52.502;13.486;2023-02-19T04:15:18;100802.31;;;3.26;100.00
55610;BME280;41486;52.502;13.486;2023-02-19T04:17:53;100804.72;;;2.89;100.00
55610;BME280;41486;52.502;13.486;2023-02-19T04:20:26;100803.03;;;2.67;100.00
55610;BME280;41486;52.502;13.486;2023-02-19T04:22:56;100810.78;;;2.90;100.00
55610;BME280;41486;52.502;13.486;2023-02-19T04:25:26;100813.13;;;2.96;100.00
55610;BME280;41486;52.502;13.486;2023-02-19T04:27:55;100805.25;;;2.77;100.00
55610;BME280;41486;52.502;13.486;2023-02-19T04:30:24;100812.34;;;2.94;100.00
55610;BME280;41486;52.502;13.486;2023-02-19T04:32:52;100815.38;;;2.83;100.00
55610;BME280;41486;52.502;13.486;2023-02-19T04:35:20;100818.34;;;2.53;100.00
55610;BME280;41486;52.502;13.486;2023-02-19T04:37:49;100818.25;;;2.55;100.00
55610;BME280;41486;52.502;13.486;2023-02-19T04:40:17;100831.44;;;2.72;100.00
55610;BME280;41486;52.502;13.486;2023-02-19T04:42:45;100826.97;;;2.53;100.00
55610;BME280;41486;52.502;13.486;2023-02-19T04:45:13;100824.72;;;2.66;100.00
55610;BME280;41486;52.502;13.486;2023-02-19T04:47:41;100820.19;;;2.72;100.00
55610;BME280;41486;52.502;13.486;2023-02-19T04:50:09;100834.63;;;2.79;100.00
55610;BME280;41486;52.502;13.486;2023-02-19T04:52:37;100832.88;;;2.57;100.00
55610;BME280;41486;52.502;13.486;2023-02-19T04:55:08;100827.13;;;2.71;100.00
55610;BME280;41486;52.502;13.486;2023-02-19T04:57:36;100834.41;;;2.63;100.00
55610;BME280;41486;52.502;13.486;2023-02-19T05:00:05;100836.22;;;2.39;100.00
55610;BME280;41486;52.502;13.486;2023-02-19T05:02:33;100831.78;;;2.63;100.00
55610;BME280;41486;52.502;13.486;2023-02-19T05:05:01;100845.03;;;2.34;100.00
55610;BME280;41486;52.502;13.486;2023-02-19T05:07:30;100850.19;;;2.36;100.00
55610;BME280;41486;52.502;13.486;2023-02-19T05:09:58;100846.97;;;2.51;100.00
55610;BME280;41486;52.502;13.486;2023-02-19T05:12:28;100848.44;;;2.13;100.00
55610;BME280;41486;52.502;13.486;2023-02-19T05:14:56;100846.00;;;2.54;100.00
55610;BME280;41486;52.502;13.486;2023-02-19T05:17:24;100845.34;;;2.27;100.00
55610;BME280;41486;52.502;13.486;2023-02-19T05:19:54;100841.16;;;2.23;100.00
55610;BME280;41486;52.502;13.486;2023-02-19T05:22:22;100846.38;;;1.99;100.00
55610;BME280;41486;52.502;13.486;2023-02-19T05:24:50;100843.75;;;2.23;100.00
55610;BME280;41486;52.502;13.486;2023-02-19T05:27:18;100838.59;;;1.99;100.00
55610;BME280;41486;52.502;13.486;2023-02-19T05:29:47;100834.63;;;1.88;100.00
55610;BME280;41486;52.502;13.486;2023-02-19T05:32:15;100841.41;;;2.16;100.00
55610;BME280;41486;52.502;13.486;2023-02-19T05:34:43;100839.03;;;2.10;100.00
55610;BME280;41486;52.502;13.486;2023-02-19T05:37:11;100840.81;;;2.32;100.00
55610;BME280;41486;52.502;13.486;2023-02-19T05:39:39;100840.91;;;2.07;100.00
55610;BME280;41486;52.502;13.486;2023-02-19T05:42:07;100850.16;;;2.14;100.00
55610;BME280;41486;52.502;13.486;2023-02-19T05:44:34;100840.56;;;2.16;100.00
55610;BME280;41486;52.502;13.486;2023-02-19T05:47:04;100849.31;;;2.35;100.00
55610;BME280;41486;52.502;13.486;2023-02-19T05:49:32;100846.97;;;2.29;100.00
55610;BME280;41486;52.502;13.486;2023-02-19T05:52:00;100851.19;;;2.32;100.00
55610;BME280;41486;52.502;13.486;2023-02-19T05:54:28;100847.75;;;2.53;100.00
55610;BME280;41486;52.502;13.486;2023-02-19T05:56:56;100855.16;;;2.18;100.00
55610;BME280;41486;52.502;13.486;2023-02-19T05:59:25;100864.28;;;2.07;100.00
55610;BME280;41486;52.502;13.486;2023-02-19T06:01:53;100861.88;;;2.24;100.00
55610;BME280;41486;52.502;13.486;2023-02-19T06:04:23;100873.50;;;2.38;100.00
55610;BME280;41486;52.502;13.486;2023-02-19T06:06:51;100869.03;;;2.41;100.00
55610;BME280;41486;52.502;13.486;2023-02-19T06:09:18;100866.84;;;2.30;100.00
55610;BME280;41486;52.502;13.486;2023-02-19T06:11:46;100854.06;;;2.48;100.00
55610;BME280;41486;52.502;13.486;2023-02-19T06:14:14;100856.03;;;2.63;100.00
55610;BME280;41486;52.502;13.486;2023-02-19T06:16:42;100852.81;;;2.79;100.00
55610;BME280;41486;52.502;13.486;2023-02-19T06:19:10;100853.38;;;2.87;100.00
55610;BME280;41486;52.502;13.486;2023-02-19T06:21:39;100856.19;;;2.81;100.00
55610;BME280;41486;52.502;13.486;2023-02-19T06:24:08;100844.84;;;2.83;100.00
55610;BME280;41486;52.502;13.486;2023-02-19T06:26:37;100858.03;;;2.99;100.00
55610;BME280;41486;52.502;13.486;2023-02-19T06:29:05;100855.25;;;3.04;100.00
55610;BME280;41486;52.502;13.486;2023-02-19T06:31:33;100857.69;;;2.87;100.00
55610;BME280;41486;52.502;13.486;2023-02-19T06:34:02;100868.25;;;2.83;100.00
55610;BME280;41486;52.502;13.486;2023-02-19T06:36:31;100878.78;;;3.01;100.00
55610;BME280;41486;52.502;13.486;2023-02-19T06:39:00;100887.72;;;2.94;100.00
55610;BME280;41486;52.502;13.486;2023-02-19T06:41:28;100888.41;;;2.99;100.00
55610;BME280;41486;52.502;13.486;2023-02-19T06:43:57;100894.19;;;3.06;100.00
55610;BME280;41486;52.502;13.486;2023-02-19T06:46:25;100899.34;;;3.07;100.00
55610;BME280;41486;52.502;13.486;2023-02-19T06:48:53;100905.44;;;3.06;100.00
55610;BME280;41486;52.502;13.486;2023-02-19T06:51:21;100911.56;;;3.05;100.00
55610;BME280;41486;52.502;13.486;2023-02-19T06:53:52;100916.88;;;3.02;100.00
55610;BME280;41486;52.502;13.486;2023-02-19T06:56:23;100931.25;;;3.11;100.00
55610;BME280;41486;52.502;13.486;2023-02-19T06:58:53;100935.03;;;3.04;100.00
55610;BME280;41486;52.502;13.486;2023-02-19T07:01:21;100940.22;;;3.04;100.00
55610;BME280;41486;52.502;13.486;2023-02-19T07:03:49;100937.47;;;3.07;100.00
55610;BME280;41486;52.502;13.486;2023-02-19T07:06:18;100945.16;;;2.65;100.00
55610;BME280;41486;52.502;13.486;2023-02-19T07:08:46;100936.03;;;2.99;100.00
55610;BME280;41486;52.502;13.486;2023-02-19T07:11:14;100942.63;;;3.08;100.00
55610;BME280;41486;52.502;13.486;2023-02-19T07:13:44;100939.34;;;3.25;100.00
55610;BME280;41486;52.502;13.486;2023-02-19T07:16:12;100945.03;;;3.13;100.00
55610;BME280;41486;52.502;13.486;2023-02-19T07:18:41;100947.22;;;3.02;100.00
55610;BME280;41486;52.502;13.486;2023-02-19T07:21:10;100951.94;;;3.14;100.00
55610;BME280;41486;52.502;13.486;2023-02-19T07:23:39;100971.00;;;3.14;100.00
55610;BME280;41486;52.502;13.486;2023-02-19T07:26:08;100962.84;;;3.02;100.00
55610;BME280;41486;52.502;13.486;2023-02-19T07:28:36;100974.59;;;3.10;100.00
55610;BME280;41486;52.502;13.486;2023-02-19T07:31:06;100974.31;;;3.18;100.00
55610;BME280;41486;52.502;13.486;2023-02-19T07:33:34;100984.75;;;3.16;100.00
55610;BME280;41486;52.502;13.486;2023-02-19T07:36:02;100978.00;;;3.12;100.00
55610;BME280;41486;52.502;13.486;2023-02-19T07:38:30;100989.44;;;3.08;100.00
55610;BME280;41486;52.502;13.486;2023-02-19T07:40:59;100989.31;;;3.11;100.00
55610;BME280;41486;52.502;13.486;2023-02-19T07:43:29;100986.63;;;3.13;100.00
55610;BME280;41486;52.502;13.486;2023-02-19T07:45:58;101012.19;;;2.79;100.00
55610;BME280;41486;52.502;13.486;2023-02-19T07:48:30;100997.28;;;3.07;100.00
55610;BME280;41486;52.502;13.486;2023-02-19T07:51:00;101008.13;;;3.18;100.00
55610;BME280;41486;52.502;13.486;2023-02-19T07:53:29;100995.91;;;3.20;100.00
55610;BME280;41486;52.502;13.486;2023-02-19T07:55:58;101017.47;;;3.22;100.00
55610;BME280;41486;52.502;13.486;2023-02-19T07:58:27;101015.84;;;3.20;100.00
55610;BME280;41486;52.502;13.486;2023-02-19T08:00:55;101012.34;;;3.21;100.00
55610;BME280;41486;52.502;13.486;2023-02-19T08:03:23;101025.72;;;3.11;100.00
55610;BME280;41486;52.502;13.486;2023-02-19T08:05:56;101026.91;;;3.25;100.00
55610;BME280;41486;52.502;13.486;2023-02-19T08:08:24;101037.31;;;3.25;100.00
55610;BME280;41486;52.502;13.486;2023-02-19T08:10:52;101056.56;;;3.21;100.00
55610;BME280;41486;52.502;13.486;2023-02-19T08:13:38;101052.34;;;3.18;100.00
55610;BME280;41486;52.502;13.486;2023-02-19T08:16:11;101056.56;;;3.21;100.00
55610;BME280;41486;52.502;13.486;2023-02-19T08:18:49;101054.97;;;3.16;100.00
55610;BME280;41486;52.502;13.486;2023-02-19T08:21:19;101066.22;;;2.95;100.00
55610;BME280;41486;52.502;13.486;2023-02-19T08:23:47;101074.13;;;3.15;100.00
55610;BME280;41486;52.502;13.486;2023-02-19T08:26:17;101078.38;;;3.16;100.00
55610;BME280;41486;52.502;13.486;2023-02-19T08:28:45;101094.06;;;3.15;100.00
55610;BME280;41486;52.502;13.486;2023-02-19T08:31:14;101095.59;;;3.21;100.00
55610;BME280;41486;52.502;13.486;2023-02-19T08:33:43;101091.19;;;3.23;100.00
55610;BME280;41486;52.502;13.486;2023-02-19T08:36:10;101105.31;;;3.15;100.00
55610;BME280;41486;52.502;13.486;2023-02-19T08:38:40;101113.44;;;3.30;100.00
55610;BME280;41486;52.502;13.486;2023-02-19T08:41:10;101109.94;;;3.31;100.00
55610;BME280;41486;52.502;13.486;2023-02-19T08:43:39;101105.50;;;3.33;100.00
55610;BME280;41486;52.502;13.486;2023-02-19T08:46:08;101129.78;;;3.34;100.00
55610;BME280;41486;52.502;13.486;2023-02-19T08:48:37;101134.81;;;3.38;100.00
55610;BME280;41486;52.502;13.486;2023-02-19T08:51:08;101130.16;;;3.46;100.00
55610;BME280;41486;52.502;13.486;2023-02-19T08:53:39;101128.28;;;3.50;100.00
55610;BME280;41486;52.502;13.486;2023-02-19T08:56:08;101128.94;;;3.55;100.00
55610;BME280;41486;52.502;13.486;2023-02-19T08:58:37;101150.06;;;3.70;100.00
55610;BME280;41486;52.502;13.486;2023-02-19T09:01:07;101144.50;;;3.79;100.00
55610;BME280;41486;52.502;13.486;2023-02-19T09:03:37;101146.25;;;3.78;100.00
55610;BME280;41486;52.502;13.486;2023-02-19T09:06:05;101147.19;;;3.98;100.00
55610;BME280;41486;52.502;13.486;2023-02-19T09:08:36;101169.97;;;3.93;100.00
55610;BME280;41486;52.502;13.486;2023-02-19T09:11:05;101167.63;;;3.87;100.00
55610;BME280;41486;52.502;13.486;2023-02-19T09:13:33;101159.63;;;3.91;100.00
55610;BME280;41486;52.502;13.486;2023-02-19T09:16:02;101164.53;;;3.99;100.00
55610;BME280;41486;52.502;13.486;2023-02-19T09:18:30;101170.44;;;4.03;100.00
55610;BME280;41486;52.502;13.486;2023-02-19T09:20:59;101165.84;;;4.09;100.00
55610;BME280;41486;52.502;13.486;2023-02-19T09:23:27;101179.72;;;4.10;100.00
55610;BME280;41486;52.502;13.486;2023-02-19T09:25:56;101188.91;;;4.19;100.00
55610;BME280;41486;52.502;13.486;2023-02-19T09:28:27;101176.00;;;4.16;100.00
55610;BME280;41486;52.502;13.486;2023-02-19T09:30:55;101178.53;;;4.17;100.00
55610;BME280;41486;52.502;13.486;2023-02-19T09:33:23;101176.72;;;4.19;100.00
55610;BME280;41486;52.502;13.486;2023-02-19T09:35:51;101183.59;;;4.42;100.00
55610;BME280;41486;52.502;13.486;2023-02-19T09:38:19;101184.44;;;4.43;100.00
55610;BME280;41486;52.502;13.486;2023-02-19T09:40:47;101190.97;;;4.53;100.00
55610;BME280;41486;52.502;13.486;2023-02-19T09:43:17;101197.63;;;4.40;100.00
55610;BME280;41486;52.502;13.486;2023-02-19T09:45:57;101183.91;;;4.35;100.00
55610;BME280;41486;52.502;13.486;2023-02-19T09:48:28;101188.00;;;4.20;100.00
55610;BME280;41486;52.502;13.486;2023-02-19T09:50:57;101195.56;;;4.26;100.00
55610;BME280;41486;52.502;13.486;2023-02-19T09:53:32;101210.59;;;4.19;100.00
55610;BME280;41486;52.502;13.486;2023-02-19T09:56:06;101200.06;;;4.22;100.00
55610;BME280;41486;52.502;13.486;2023-02-19T09:58:39;101214.06;;;4.20;100.00
55610;BME280;41486;52.502;13.486;2023-02-19T10:01:11;101211.38;;;4.44;100.00
55610;BME280;41486;52.502;13.486;2023-02-19T10:03:43;101221.78;;;4.44;100.00
55610;BME280;41486;52.502;13.486;2023-02-19T10:06:16;101214.72;;;4.46;100.00
55610;BME280;41486;52.502;13.486;2023-02-19T10:08:47;101223.34;;;4.48;100.00
55610;BME280;41486;52.502;13.486;2023-02-19T10:11:17;101225.50;;;4.58;100.00
55610;BME280;41486;52.502;13.486;2023-02-19T10:13:47;101234.75;;;4.66;100.00
55610;BME280;41486;52.502;13.486;2023-02-19T10:16:23;101229.88;;;4.79;100.00
55610;BME280;41486;52.502;13.486;2023-02-19T10:18:51;101234.56;;;4.91;100.00
55610;BME280;41486;52.502;13.486;2023-02-19T10:21:22;101251.06;;;4.92;100.00
55610;BME280;41486;52.502;13.486;2023-02-19T10:23:52;101248.13;;;4.79;97.92
55610;BME280;41486;52.502;13.486;2023-02-19T10:26:22;101255.66;;;4.85;97.23
55610;BME280;41486;52.502;13.486;2023-02-19T10:28:50;101257.56;;;5.02;97.40
55610;BME280;41486;52.502;13.486;2023-02-19T10:31:22;101269.13;;;4.76;96.96
55610;BME280;41486;52.502;13.486;2023-02-19T10:33:52;101265.72;;;4.73;96.71
55610;BME280;41486;52.502;13.486;2023-02-19T10:36:26;101269.94;;;4.97;96.19
55610;BME280;41486;52.502;13.486;2023-02-19T10:38:58;101274.00;;;4.83;94.46
55610;BME280;41486;52.502;13.486;2023-02-19T10:41:29;101276.09;;;4.96;95.14
55610;BME280;41486;52.502;13.486;2023-02-19T10:44:05;101277.34;;;5.08;96.44
55610;BME280;41486;52.502;13.486;2023-02-19T10:46:39;101283.84;;;4.97;92.25
55610;BME280;41486;52.502;13.486;2023-02-19T10:49:19;101295.28;;;4.95;91.86
55610;BME280;41486;52.502;13.486;2023-02-19T10:51:51;101288.28;;;4.95;92.15
55610;BME280;41486;52.502;13.486;2023-02-19T10:54:25;101308.31;;;4.95;88.82
55610;BME280;41486;52.502;13.486;2023-02-19T10:57:15;101298.94;;;5.11;90.33
55610;BME280;41486;52.502;13.486;2023-02-19T10:59:52;101298.84;;;5.13;92.95
55610;BME280;41486;52.502;13.486;2023-02-19T11:02:25;101331.34;;;5.05;88.13
55610;BME280;41486;52.502;13.486;2023-02-19T11:05:08;101314.97;;;5.02;87.00
55610;BME280;41486;52.502;13.486;2023-02-19T11:07:47;101301.69;;;5.27;87.81
55610;BME280;41486;52.502;13.486;2023-02-19T11:10:23;101316.66;;;5.44;88.35
55610;BME280;41486;52.502;13.486;2023-02-19T11:12:54;101323.88;;;5.17;85.79
55610;BME280;41486;52.502;13.486;2023-02-19T11:15:27;101333.16;;;5.24;85.78
55610;BME280;41486;52.502;13.486;2023-02-19T11:18:01;101342.63;;;5.27;85.27
55610;BME280;41486;52.502;13.486;2023-02-19T11:20:30;101337.34;;;5.28;84.05
55610;BME280;41486;52.502;13.486;2023-02-19T11:23:10;101344.84;;;5.36;83.90
55610;BME280;41486;52.502;13.486;2023-02-19T11:25:44;101342.09;;;5.39;82.65
55610;BME280;41486;52.502;13.486;2023-02-19T11:28:23;101357.94;;;5.34;83.92
55610;BME280;41486;52.502;13.486;2023-02-19T11:30:53;101364.75;;;5.39;81.85
55610;BME280;41486;52.502;13.486;2023-02-19T11:33:25;101366.28;;;5.43;80.38
55610;BME280;41486;52.502;13.486;2023-02-19T11:36:16;101353.91;;;5.27;80.80
55610;BME280;41486;52.502;13.486;2023-02-19T11:38:48;101360.16;;;5.44;82.13
55610;BME280;41486;52.502;13.486;2023-02-19T11:41:21;101345.56;;;5.40;81.72
55610;BME280;41486;52.502;13.486;2023-02-19T11:44:06;101360.19;;;5.63;80.37
55610;BME280;41486;52.502;13.486;2023-02-19T11:46:44;101354.22;;;6.00;79.41
55610;BME280;41486;52.502;13.486;2023-02-19T11:49:27;101363.13;;;5.95;77.78
55610;BME280;41486;52.502;13.486;2023-02-19T11:52:17;101368.06;;;6.03;75.03
55610;BME280;41486;52.502;13.486;2023-02-19T11:54:51;101340.63;;;6.11;76.92
55610;BME280;41486;52.502;13.486;2023-02-19T11:57:37;101357.72;;;6.38;73.68
55610;BME280;41486;52.502;13.486;2023-02-19T12:00:23;101352.94;;;6.28;74.25
55610;BME280;41486;52.502;13.486;2023-02-19T12:03:19;101346.53;;;6.17;71.72
55610;BME280;41486;52.502;13.486;2023-02-19T12:06:10;101347.44;;;6.15;71.89
55610;BME280;41486;52.502;13.486;2023-02-19T12:08:59;101356.88;;;6.37;71.61
55610;BME280;41486;52.502;13.486;2023-02-19T12:11:39;101362.66;;;6.44;72.25
55610;BME280;41486;52.502;13.486;2023-02-19T12:14:26;101373.75;;;6.49;72.13
55610;BME280;41486;52.502;13.486;2023-02-19T12:17:02;101371.75;;;6.54;69.73
55610;BME280;41486;52.502;13.486;2023-02-19T12:19:52;101368.22;;;7.09;67.32
55610;BME280;41486;52.502;13.486;2023-02-19T12:22:28;101370.91;;;7.08;67.23
55610;BME280;41486;52.502;13.486;2023-02-19T12:28:17;101377.88;;;6.72;68.37
55610;BME280;41486;52.502;13.486;2023-02-19T12:31:11;101384.81;;;6.91;65.42
55610;BME280;41486;52.502;13.486;2023-02-19T12:37:11;101402.16;;;8.93;62.53
55610;BME280;41486;52.502;13.486;2023-02-19T12:39:47;101398.63;;;10.26;54.73
55610;BME280;41486;52.502;13.486;2023-02-19T12:42:30;101407.22;;;11.25;52.47
55610;BME280;41486;52.502;13.486;2023-02-19T12:45:07;101401.16;;;10.42;52.31
55610;BME280;41486;52.502;13.486;2023-02-19T12:47:57;101413.56;;;11.74;48.84
55610;BME280;41486;52.502;13.486;2023-02-19T12:50:27;101404.41;;;11.66;49.49
55610;BME280;41486;52.502;13.486;2023-02-19T12:53:00;101406.84;;;11.57;48.06
55610;BME280;41486;52.502;13.486;2023-02-19T12:55:35;101414.56;;;11.07;48.29
55610;BME280;41486;52.502;13.486;2023-02-19T12:58:09;101426.53;;;9.71;50.38
55610;BME280;41486;52.502;13.486;2023-02-19T13:00:41;101408.00;;;10.30;49.48
55610;BME280;41486;52.502;13.486;2023-02-19T13:03:13;101426.91;;;10.37;48.99
55610;BME280;41486;52.502;13.486;2023-02-19T13:05:50;101419.25;;;10.88;47.56
55610;BME280;41486;52.502;13.486;2023-02-19T13:08:23;101411.16;;;10.64;49.57
55610;BME280;41486;52.502;13.486;2023-02-19T13:10:58;101424.13;;;11.74;47.14
55610;BME280;41486;52.502;13.486;2023-02-19T13:13:30;101435.38;;;12.40;45.38